Time;durP1;ratioP1;P1;durP2;ratioP2;P2;SDS_P1;SDS_P2;PMS_P1;PMS_P2;Temp;Humidity;BMP_temperature;BMP_pressure;BME280_temperature;BME280_humidity;BME280_pressure;Samples;Min_cycle;Max_cycle;Signal;HPM_P1;HPM_P2
2020/12/28 05:47:47;;;;;;;2.50;0.95;;;;;;;;;;6220332;23;20112;-82
2020/12/28 05:50:16;;;;;;;2.70;0.70;;;;;;;;;;6221376;23;20005;-82
2020/12/28 05:52:47;;;;;;;1.60;0.70;;;;;;;;;;6194089;23;20011;-82
2020/12/28 05:55:16;;;;;;;2.38;0.80;;;;;;;;;;6220590;23;20043;-82
2020/12/28 05:57:42;;;;;;;2.20;0.82;;;;;;;;;;6220587;23;20010;-82
2020/12/28 06:00:08;;;;;;;2.97;0.80;;;;;;;;;;6217501;23;20008;-82
2020/12/28 06:02:34;;;;;;;2.15;0.77;;;;;;;;;;6215119;23;20415;-81
2020/12/28 06:05:00;;;;;;;3.15;1.23;;;;;;;;;;6214066;23;20423;-81
2020/12/28 06:07:26;;;;;;;2.20;1.00;;;;;;;;;;6214514;23;20011;-81
2020/12/28 06:09:56;;;;;;;2.42;1.02;;;;;;;;;;6214990;23;20009;-81
2020/12/28 06:12:22;;;;;;;1.85;0.75;;;;;;;;;;6188074;23;20023;-81
2020/12/28 06:14:48;;;;;;;2.25;0.80;;;;;;;;;;6214443;23;20001;-82
2020/12/28 06:17:14;;;;;;;1.90;0.70;;;;;;;;;;6214811;23;20052;-81
2020/12/28 06:19:41;;;;;;;1.67;0.68;;;;;;;;;;6214782;23;20003;-82
2020/12/28 06:22:20;;;;;;;1.27;0.55;;;;;;;;;;6214639;23;20462;-82
2020/12/28 06:24:55;;;;;;;1.38;0.63;;;;;;;;;;6213704;23;20024;-82
2020/12/28 06:27:25;;;;;;;0.93;0.50;;;;;;;;;;6213932;23;20005;-82
2020/12/28 06:29:51;;;;;;;3.15;0.77;;;;;;;;;;6214366;23;20004;-81
2020/12/28 06:32:17;;;;;;;1.52;0.63;;;;;;;;;;6214462;23;20058;-82
2020/12/28 06:34:46;;;;;;;1.48;0.60;;;;;;;;;;6213865;23;20001;-82
2020/12/28 06:37:14;;;;;;;1.58;0.77;;;;;;;;;;6213852;23;20024;-81
2020/12/28 06:39:40;;;;;;;2.03;0.80;;;;;;;;;;6213870;23;20082;-82
2020/12/28 06:42:13;;;;;;;1.80;0.70;;;;;;;;;;6213816;23;20433;-81
2020/12/28 06:44:40;;;;;;;1.10;0.57;;;;;;;;;;6213504;23;20001;-82
2020/12/28 06:47:22;;;;;;;1.77;0.73;;;;;;;;;;6213489;23;20004;-82
2020/12/28 06:49:48;;;;;;;1.80;0.80;;;;;;;;;;6213922;23;20083;-82
2020/12/28 06:52:14;;;;;;;1.25;0.60;;;;;;;;;;6214184;23;19997;-82
2020/12/28 06:54:40;;;;;;;1.70;0.88;;;;;;;;;;6213091;23;20415;-82
2020/12/28 06:57:07;;;;;;;1.38;0.68;;;;;;;;;;6213795;23;20009;-82
2020/12/28 06:59:33;;;;;;;2.08;0.70;;;;;;;;;;6212297;23;20015;-82
2020/12/28 07:02:00;;;;;;;1.02;0.50;;;;;;;;;;6213427;23;20313;-82
2020/12/28 07:04:26;;;;;;;1.50;0.60;;;;;;;;;;6213230;23;20012;-82
2020/12/28 07:06:58;;;;;;;1.63;0.50;;;;;;;;;;6213386;23;20012;-82
2020/12/28 07:09:25;;;;;;;1.80;0.70;;;;;;;;;;6213897;23;20042;-82
2020/12/28 07:11:51;;;;;;;1.45;0.65;;;;;;;;;;6213800;23;20386;-82
2020/12/28 07:14:19;;;;;;;1.55;0.60;;;;;;;;;;6212774;23;20032;-82
2020/12/28 07:16:45;;;;;;;2.22;0.80;;;;;;;;;;6212332;23;20087;-82
2020/12/28 07:19:11;;;;;;;1.85;0.73;;;;;;;;;;6213186;23;20032;-82
2020/12/28 07:21:37;;;;;;;2.35;0.77;;;;;;;;;;6213986;23;20009;-81
2020/12/28 07:24:06;;;;;;;1.90;0.80;;;;;;;;;;6212777;23;20005;-81
2020/12/28 07:26:32;;;;;;;4.00;3.47;;;;;;;;;;6212870;23;20009;-82
2020/12/28 07:28:58;;;;;;;5.82;3.28;;;;;;;;;;6213052;23;20028;-83
2020/12/28 07:31:24;;;;;;;8.45;4.95;;;;;;;;;;6212599;23;20007;-83
2020/12/28 07:33:50;;;;;;;4.43;2.90;;;;;;;;;;6211907;23;20001;-82
2020/12/28 07:36:18;;;;;;;6.47;2.13;;;;;;;;;;6212573;23;20036;-83
2020/12/28 07:38:48;;;;;;;3.03;1.70;;;;;;;;;;6212173;23;20076;-82
2020/12/28 07:41:18;;;;;;;2.95;1.42;;;;;;;;;;6212174;23;20008;-82
2020/12/28 07:43:50;;;;;;;2.58;1.20;;;;;;;;;;6212491;23;20072;-82
2020/12/28 07:46:17;;;;;;;2.80;1.42;;;;;;;;;;6212235;23;20414;-82
2020/12/28 07:48:44;;;;;;;3.50;1.30;;;;;;;;;;6186374;23;20370;-83
2020/12/28 07:51:11;;;;;;;4.20;2.13;;;;;;;;;;6186807;23;20382;-83
2020/12/28 07:53:42;;;;;;;4.07;2.25;;;;;;;;;;6219061;23;20119;-81
2020/12/28 07:56:17;;;;;;;5.10;1.80;;;;;;;;;;6194744;23;20008;-82
2020/12/28 07:59:01;;;;;;;3.30;1.65;;;;;;;;;;6221865;23;20012;-82
2020/12/28 08:01:34;;;;;;;2.08;1.20;;;;;;;;;;6218887;23;20013;-82
2020/12/28 08:06:20;;;;;;;2.22;1.27;;;;;;;;;;5048381;28;20390;-81
2020/12/28 08:08:46;;;;;;;2.13;1.00;;;;;;;;;;5039900;28;20029;-81
2020/12/28 08:11:12;;;;;;;4.03;2.00;;;;;;;;;;5033735;28;20113;-81
2020/12/28 08:13:38;;;;;;;9.27;7.25;;;;;;;;;;5028462;28;20502;-82
2020/12/28 08:16:11;;;;;;;9.52;5.70;;;;;;;;;;5044474;28;20013;-82
2020/12/28 08:18:47;;;;;;;6.15;3.33;;;;;;;;;;5043735;28;20025;-83
2020/12/28 08:21:14;;;;;;;2.92;1.70;;;;;;;;;;5037006;28;20025;-82
2020/12/28 08:23:40;;;;;;;2.75;1.42;;;;;;;;;;5037689;28;20021;-83
2020/12/28 08:26:19;;;;;;;4.95;2.70;;;;;;;;;;5038097;28;20422;-82
2020/12/28 08:28:52;;;;;;;3.80;1.77;;;;;;;;;;5030762;28;20382;-83
2020/12/28 08:31:24;;;;;;;2.33;1.23;;;;;;;;;;5032857;28;20100;-82
2020/12/28 08:33:57;;;;;;;4.35;1.98;;;;;;;;;;5036656;28;20029;-82
2020/12/28 08:36:24;;;;;;;15.63;7.25;;;;;;;;;;5033025;28;20037;-82
2020/12/28 08:38:50;;;;;;;25.27;12.00;;;;;;;;;;5037552;28;20052;-82
2020/12/28 08:41:16;;;;;;;16.83;9.93;;;;;;;;;;5039985;28;20101;-83
2020/12/28 08:43:45;;;;;;;11.63;6.60;;;;;;;;;;5038820;28;20035;-82
2020/12/28 08:46:11;;;;;;;10.13;4.50;;;;;;;;;;5035846;28;20057;-82
2020/12/28 08:48:37;;;;;;;7.20;3.80;;;;;;;;;;5039129;28;20103;-83
2020/12/28 08:51:13;;;;;;;6.75;3.38;;;;;;;;;;5027650;28;20026;-82
2020/12/28 08:53:39;;;;;;;9.07;5.47;;;;;;;;;;5037221;28;20048;-82
2020/12/28 08:56:04;;;;;;;10.95;6.68;;;;;;;;;;5023071;28;20030;-82
2020/12/28 08:58:30;;;;;;;12.75;7.38;;;;;;;;;;5035598;28;20029;-81
2020/12/28 09:00:56;;;;;;;24.30;12.75;;;;;;;;;;5037037;28;20551;-84
2020/12/28 09:03:23;;;;;;;23.00;14.40;;;;;;;;;;5037167;28;20095;-84
2020/12/28 09:05:49;;;;;;;21.30;12.30;;;;;;;;;;5039182;28;20026;-84
2020/12/28 09:08:15;;;;;;;20.27;12.18;;;;;;;;;;5035273;28;20025;-84
2020/12/28 09:10:41;;;;;;;10.63;8.07;;;;;;;;;;5036049;28;20045;-81
2020/12/28 09:13:07;;;;;;;14.80;8.00;;;;;;;;;;5033800;28;20170;-81
2020/12/28 09:15:33;;;;;;;14.60;7.95;;;;;;;;;;5038522;28;20110;-81
2020/12/28 09:17:59;;;;;;;14.45;8.30;;;;;;;;;;5028440;28;20080;-81
2020/12/28 09:20:25;;;;;;;15.15;8.70;;;;;;;;;;5021094;28;20036;-85
2020/12/28 09:22:51;;;;;;;20.92;12.95;;;;;;;;;;5025459;28;20026;-85
2020/12/28 09:25:16;;;;;;;7.03;4.60;;;;;;;;;;5025844;28;20021;-84
2020/12/28 09:27:42;;;;;;;4.85;2.92;;;;;;;;;;5013069;28;20032;-84
2020/12/28 09:32:25;;;;;;;2.08;0.95;;;;;;;;;;4965628;27;3251760;-84
2020/12/28 09:34:52;;;;;;;18.42;8.38;;;;;;;;;;5047693;28;20028;-83
2020/12/28 09:37:18;;;;;;;16.02;8.70;;;;;;;;;;5049104;28;20053;-83
2020/12/28 09:39:43;;;;;;;10.52;6.03;;;;;;;;;;5046945;28;20021;-81
2020/12/28 09:42:09;;;;;;;18.55;11.90;;;;;;;;;;5051156;28;20029;-81
2020/12/28 09:44:35;;;;;;;9.73;6.82;;;;;;;;;;5050379;28;20049;-81
2020/12/28 09:47:01;;;;;;;7.55;5.25;;;;;;;;;;5044849;28;20075;-81
2020/12/28 09:49:27;;;;;;;7.82;4.55;;;;;;;;;;5049935;28;20109;-81
2020/12/28 09:51:54;;;;;;;3.75;1.85;;;;;;;;;;5051523;28;20427;-81
2020/12/28 09:54:23;;;;;;;5.03;2.38;;;;;;;;;;5048629;28;20037;-81
2020/12/28 09:56:49;;;;;;;3.60;2.03;;;;;;;;;;5047775;28;20393;-83
2020/12/28 09:59:15;;;;;;;4.05;2.22;;;;;;;;;;5054325;28;20381;-82
2020/12/28 10:01:45;;;;;;;3.47;2.15;;;;;;;;;;5055025;28;20021;-81
2020/12/28 10:04:11;;;;;;;2.75;1.52;;;;;;;;;;5059340;28;20155;-81
2020/12/28 10:06:37;;;;;;;4.82;2.63;;;;;;;;;;5045846;28;20047;-82
2020/12/28 10:09:05;;;;;;;5.32;2.47;;;;;;;;;;5050591;28;20024;-82
2020/12/28 10:11:31;;;;;;;3.70;2.15;;;;;;;;;;5043824;28;20052;-82
2020/12/28 10:13:57;;;;;;;2.50;1.50;;;;;;;;;;5046052;28;20029;-82
2020/12/28 10:18:42;;;;;;;2.03;0.80;;;;;;;;;;5056528;28;20412;-83
2020/12/28 10:21:09;;;;;;;2.83;1.05;;;;;;;;;;5057393;28;20033;-83
2020/12/28 10:23:35;;;;;;;2.50;1.13;;;;;;;;;;5052678;28;20076;-83
2020/12/28 10:26:01;;;;;;;2.50;1.40;;;;;;;;;;5055928;28;20388;-83
2020/12/28 10:28:27;;;;;;;2.70;1.30;;;;;;;;;;5052130;28;20026;-83
2020/12/28 10:30:53;;;;;;;4.00;1.10;;;;;;;;;;5052486;28;20036;-83
2020/12/28 10:33:19;;;;;;;2.47;1.20;;;;;;;;;;5050227;28;20349;-83
2020/12/28 10:35:45;;;;;;;1.98;0.90;;;;;;;;;;5050325;28;20024;-82
2020/12/28 10:38:11;;;;;;;2.45;1.00;;;;;;;;;;5054798;28;20120;-82
2020/12/28 10:40:38;;;;;;;8.30;2.03;;;;;;;;;;5055459;28;20537;-82
2020/12/28 10:43:04;;;;;;;7.65;4.10;;;;;;;;;;5053973;28;20014;-81
2020/12/28 10:45:30;;;;;;;3.22;1.83;;;;;;;;;;5059475;28;20040;-82
2020/12/28 10:47:55;;;;;;;4.07;1.77;;;;;;;;;;5055018;28;20028;-81
2020/12/28 10:52:40;;;;;;;2.95;1.15;;;;;;;;;;5105270;27;20351;-83
2020/12/28 10:55:06;;;;;;;3.83;1.70;;;;;;;;;;5098880;28;20082;-82
2020/12/28 10:57:32;;;;;;;2.15;1.38;;;;;;;;;;5098345;28;20031;-82
2020/12/28 10:59:58;;;;;;;2.30;1.00;;;;;;;;;;5096930;28;20059;-82
2020/12/28 11:02:24;;;;;;;2.08;1.00;;;;;;;;;;5101393;28;20583;-82
2020/12/28 11:04:50;;;;;;;2.88;1.05;;;;;;;;;;5099431;28;20095;-82
2020/12/28 11:07:16;;;;;;;2.72;1.42;;;;;;;;;;5098917;28;20103;-82
2020/12/28 11:09:42;;;;;;;2.00;1.05;;;;;;;;;;5098385;28;20050;-83
2020/12/28 11:12:08;;;;;;;3.00;1.30;;;;;;;;;;5101402;28;20114;-82
2020/12/28 11:14:34;;;;;;;2.75;1.20;;;;;;;;;;5094796;28;20031;-82
2020/12/28 11:17:03;;;;;;;2.35;1.15;;;;;;;;;;5098890;28;20123;-83
2020/12/28 11:19:30;;;;;;;5.18;1.85;;;;;;;;;;5103140;28;20087;-82
2020/12/28 11:21:56;;;;;;;5.63;3.45;;;;;;;;;;5102060;28;20033;-82
2020/12/28 11:24:22;;;;;;;24.40;15.20;;;;;;;;;;5105323;28;20021;-83
2020/12/28 11:26:48;;;;;;;13.10;7.28;;;;;;;;;;5102448;28;20026;-84
2020/12/28 11:29:14;;;;;;;4.40;2.58;;;;;;;;;;5095988;28;20028;-82
2020/12/28 11:31:40;;;;;;;15.15;9.00;;;;;;;;;;5097995;28;20036;-82
2020/12/28 11:34:06;;;;;;;18.27;10.05;;;;;;;;;;5095582;28;20107;-82
2020/12/28 11:36:32;;;;;;;77.40;36.35;;;;;;;;;;5101439;28;20047;-82
2020/12/28 11:38:58;;;;;;;54.35;26.25;;;;;;;;;;5101304;28;20422;-82
2020/12/28 11:41:24;;;;;;;16.95;8.07;;;;;;;;;;5098150;28;20479;-81
2020/12/28 11:43:50;;;;;;;10.10;6.32;;;;;;;;;;5098104;28;20027;-82
2020/12/28 11:46:16;;;;;;;10.65;5.63;;;;;;;;;;5099143;28;20038;-82
2020/12/28 11:48:42;;;;;;;7.47;3.17;;;;;;;;;;5098641;28;20063;-83
2020/12/28 11:51:09;;;;;;;4.03;1.92;;;;;;;;;;5097452;28;20020;-82
2020/12/28 11:53:36;;;;;;;3.15;1.60;;;;;;;;;;5098056;28;20487;-82
2020/12/28 11:56:07;;;;;;;3.38;1.70;;;;;;;;;;5096032;28;20025;-82
2020/12/28 11:58:33;;;;;;;;;;;;;;;;;;5105919;28;20027;-82
2020/12/28 12:00:59;;;;;;;4.00;2.38;;;;;;;;;;5109392;28;19908;-82
2020/12/28 12:05:43;;;;;;;5.28;3.45;;;;;;;;;;5063398;28;20358;-82
2020/12/28 12:08:09;;;;;;;5.40;2.70;;;;;;;;;;5047667;28;20045;-81
2020/12/28 12:10:35;;;;;;;4.43;2.53;;;;;;;;;;5051575;28;20033;-82
2020/12/28 12:13:01;;;;;;;29.67;16.27;;;;;;;;;;5059319;28;20086;-81
2020/12/28 12:15:27;;;;;;;6.10;3.38;;;;;;;;;;5044540;28;20025;-84
2020/12/28 12:17:53;;;;;;;3.50;2.10;;;;;;;;;;5042141;28;20030;-81
2020/12/28 12:20:19;;;;;;;16.13;9.70;;;;;;;;;;5048655;28;20025;-82
2020/12/28 12:22:45;;;;;;;29.45;18.75;;;;;;;;;;5042548;28;20017;-81
2020/12/28 12:25:11;;;;;;;21.25;13.52;;;;;;;;;;5046087;28;20025;-83
2020/12/28 12:27:37;;;;;;;13.52;8.68;;;;;;;;;;5046252;28;20067;-82
2020/12/28 12:30:04;;;;;;;10.63;7.22;;;;;;;;;;5056861;28;20431;-83
2020/12/28 12:32:33;;;;;;;11.73;7.57;;;;;;;;;;5048633;28;20029;-82
2020/12/28 12:34:59;;;;;;;14.95;9.57;;;;;;;;;;5047475;28;20031;-83
2020/12/28 12:37:25;;;;;;;7.78;5.50;;;;;;;;;;5046003;28;20107;-83
2020/12/28 12:39:51;;;;;;;8.10;5.15;;;;;;;;;;5046477;28;20112;-83
2020/12/28 12:42:17;;;;;;;3.80;2.17;;;;;;;;;;5049995;28;20040;-83
2020/12/28 12:44:44;;;;;;;5.65;3.67;;;;;;;;;;5047653;28;20385;-83
2020/12/28 12:47:10;;;;;;;3.53;2.38;;;;;;;;;;5041113;28;20067;-82
2020/12/28 12:49:36;;;;;;;5.43;3.28;;;;;;;;;;5048681;28;20018;-82
2020/12/28 12:52:17;;;;;;;5.90;2.30;;;;;;;;;;5051507;28;20071;-84
2020/12/28 12:54:43;;;;;;;6.22;3.38;;;;;;;;;;5052079;28;20481;-83
2020/12/28 12:57:09;;;;;;;6.82;5.22;;;;;;;;;;5047200;28;20120;-83
2020/12/28 13:02:24;;;;;;;6.75;4.45;;;;;;;;;;5043352;28;20669;-84
2020/12/28 13:04:50;;;;;;;3.40;2.33;;;;;;;;;;5041284;28;20136;-85
2020/12/28 13:07:16;;;;;;;3.00;1.73;;;;;;;;;;5039968;28;20029;-84
2020/12/28 13:09:42;;;;;;;2.70;1.50;;;;;;;;;;5045222;28;20027;-83
2020/12/28 13:12:09;;;;;;;3.83;0.90;;;;;;;;;;5042330;28;20495;-83
2020/12/28 13:14:35;;;;;;;2.90;1.33;;;;;;;;;;5048927;28;20108;-83
2020/12/28 13:17:01;;;;;;;3.38;1.80;;;;;;;;;;5036418;28;20026;-84
2020/12/28 13:19:27;;;;;;;3.30;1.80;;;;;;;;;;5032305;28;20037;-84
2020/12/28 13:21:53;;;;;;;5.65;2.40;;;;;;;;;;5030811;28;20056;-83
2020/12/28 13:24:19;;;;;;;4.97;3.67;;;;;;;;;;5032576;28;20025;-83
2020/12/28 13:26:45;;;;;;;3.20;1.73;;;;;;;;;;5032441;28;20028;-84
2020/12/28 13:29:11;;;;;;;5.85;2.10;;;;;;;;;;5026532;28;20056;-84
2020/12/28 13:31:37;;;;;;;3.67;1.55;;;;;;;;;;5038200;28;20062;-83
2020/12/28 13:34:03;;;;;;;3.50;2.03;;;;;;;;;;5039986;28;20029;-83
2020/12/28 13:36:32;;;;;;;2.67;1.30;;;;;;;;;;5037996;28;20437;-83
2020/12/28 13:38:58;;;;;;;2.10;1.10;;;;;;;;;;5040225;28;20037;-84
2020/12/28 13:41:24;;;;;;;2.20;1.02;;;;;;;;;;5031914;28;20404;-83
2020/12/28 13:43:51;;;;;;;2.35;1.00;;;;;;;;;;5035816;28;20120;-83
2020/12/28 13:46:16;;;;;;;2.65;1.10;;;;;;;;;;5035988;28;20029;-84
2020/12/28 13:48:42;;;;;;;3.33;1.25;;;;;;;;;;5039661;28;20104;-84
2020/12/28 13:51:08;;;;;;;2.92;1.45;;;;;;;;;;5037049;28;20071;-84
2020/12/28 13:53:34;;;;;;;2.45;1.20;;;;;;;;;;5036107;28;20037;-83
2020/12/28 13:56:00;;;;;;;178.82;82.07;;;;;;;;;;5041946;28;20026;-83
2020/12/28 13:58:26;;;;;;;20.77;11.55;;;;;;;;;;5037929;28;20049;-83
2020/12/28 14:00:52;;;;;;;3.80;2.20;;;;;;;;;;5032605;28;20033;-82
2020/12/28 14:03:21;;;;;;;4.03;1.75;;;;;;;;;;5031854;28;20028;-83
2020/12/28 14:05:47;;;;;;;4.07;0.90;;;;;;;;;;5034030;28;20517;-83
2020/12/28 14:08:16;;;;;;;1.58;0.70;;;;;;;;;;5034487;28;20017;-83
2020/12/28 14:10:43;;;;;;;1.52;0.60;;;;;;;;;;5037214;28;20025;-83
2020/12/28 14:13:10;;;;;;;2.33;0.95;;;;;;;;;;5032540;28;20028;-83
2020/12/28 14:15:36;;;;;;;1.88;0.57;;;;;;;;;;5033436;28;20033;-84
2020/12/28 14:18:02;;;;;;;1.67;0.80;;;;;;;;;;5031057;28;20025;-84
2020/12/28 14:20:28;;;;;;;3.85;1.60;;;;;;;;;;5035117;28;20040;-84
2020/12/28 14:22:54;;;;;;;2.67;1.00;;;;;;;;;;5035568;28;20482;-84
2020/12/28 14:25:20;;;;;;;2.15;1.00;;;;;;;;;;5027762;28;20102;-84
2020/12/28 14:27:46;;;;;;;1.30;0.50;;;;;;;;;;5033837;28;20106;-83
2020/12/28 14:30:12;;;;;;;1.52;0.60;;;;;;;;;;5027967;28;20044;-82
2020/12/28 14:32:38;;;;;;;2.80;1.50;;;;;;;;;;5033493;28;20525;-82
2020/12/28 14:35:05;;;;;;;1.92;0.85;;;;;;;;;;5032242;28;20037;-82
2020/12/28 14:37:30;;;;;;;2.17;0.93;;;;;;;;;;5028963;28;20025;-83
2020/12/28 14:39:56;;;;;;;2.72;1.27;;;;;;;;;;5043231;23;20046;-81
2020/12/28 14:42:22;;;;;;;2.58;1.17;;;;;;;;;;5026424;28;20433;-82
2020/12/28 14:44:48;;;;;;;2.35;1.25;;;;;;;;;;5012156;28;20030;-84
2020/12/28 14:47:14;;;;;;;1.73;0.70;;;;;;;;;;5011180;28;20026;-83
2020/12/28 14:49:40;;;;;;;1.42;0.70;;;;;;;;;;5009685;28;20025;-84
2020/12/28 14:52:06;;;;;;;1.08;0.55;;;;;;;;;;5028837;28;20026;-84
2020/12/28 14:54:32;;;;;;;4.78;1.10;;;;;;;;;;5031007;28;20029;-84
2020/12/28 14:56:58;;;;;;;5.10;0.90;;;;;;;;;;5031123;28;20037;-84
2020/12/28 14:59:24;;;;;;;1.98;0.80;;;;;;;;;;5033138;28;20021;-84
2020/12/28 15:01:50;;;;;;;2.00;0.80;;;;;;;;;;5027518;28;20485;-83
2020/12/28 15:04:16;;;;;;;1.73;0.70;;;;;;;;;;5031164;28;20033;-83
2020/12/28 15:06:42;;;;;;;2.95;0.80;;;;;;;;;;5029233;28;20025;-83
2020/12/28 15:09:08;;;;;;;2.63;1.10;;;;;;;;;;5030529;28;20033;-82
2020/12/28 15:11:34;;;;;;;2.00;0.95;;;;;;;;;;5043543;28;20029;-83
2020/12/28 15:14:00;;;;;;;1.38;0.70;;;;;;;;;;5027864;28;20025;-84
2020/12/28 15:16:25;;;;;;;1.80;0.80;;;;;;;;;;5031498;28;20153;-84
2020/12/28 15:18:51;;;;;;;2.38;1.00;;;;;;;;;;5023391;28;20025;-84
2020/12/28 15:21:17;;;;;;;6.22;2.30;;;;;;;;;;5028465;28;20025;-82
2020/12/28 15:23:43;;;;;;;12.68;4.97;;;;;;;;;;5026384;28;20452;-84
2020/12/28 15:26:09;;;;;;;24.88;12.15;;;;;;;;;;5026177;28;20025;-83
2020/12/28 15:28:35;;;;;;;10.77;4.63;;;;;;;;;;5024293;28;20442;-83
2020/12/28 15:31:01;;;;;;;25.88;10.90;;;;;;;;;;5028275;28;20056;-83
2020/12/28 15:33:28;;;;;;;51.15;20.60;;;;;;;;;;5028367;28;20057;-83
2020/12/28 15:35:54;;;;;;;13.00;6.35;;;;;;;;;;5023386;28;20026;-83
2020/12/28 15:38:20;;;;;;;11.65;4.90;;;;;;;;;;5027675;28;20021;-83
2020/12/28 15:40:46;;;;;;;104.15;40.75;;;;;;;;;;5029057;28;20036;-83
2020/12/28 15:45:31;;;;;;;18.88;10.32;;;;;;;;;;5073941;28;20414;-82
2020/12/28 15:47:57;;;;;;;38.20;21.88;;;;;;;;;;5076255;28;20021;-82
2020/12/28 15:50:23;;;;;;;33.70;19.67;;;;;;;;;;5058014;28;20128;-82
2020/12/28 15:52:49;;;;;;;10.77;7.18;;;;;;;;;;5077898;28;20017;-82
2020/12/28 15:55:15;;;;;;;5.28;2.45;;;;;;;;;;5072371;28;20055;-82
2020/12/28 15:57:41;;;;;;;3.58;1.55;;;;;;;;;;5061291;28;20025;-82
2020/12/28 16:00:07;;;;;;;2.10;0.90;;;;;;;;;;5062281;28;20056;-82
2020/12/28 16:02:34;;;;;;;3.20;1.40;;;;;;;;;;5062618;28;20052;-82
2020/12/28 16:05:00;;;;;;;3.83;1.90;;;;;;;;;;5076732;28;20029;-82
2020/12/28 16:07:26;;;;;;;3.42;2.00;;;;;;;;;;5057757;28;20029;-82
2020/12/28 16:12:10;;;;;;;3.53;1.90;;;;;;;;;;5110309;27;20768;-83
2020/12/28 16:14:36;;;;;;;2.67;1.65;;;;;;;;;;5099760;28;20028;-83
2020/12/28 16:17:03;;;;;;;3.65;2.00;;;;;;;;;;5109611;28;20028;-82
2020/12/28 16:19:29;;;;;;;3.45;1.73;;;;;;;;;;5098292;28;20016;-83
2020/12/28 16:21:55;;;;;;;2.67;1.25;;;;;;;;;;5104457;28;20028;-83
2020/12/28 16:24:21;;;;;;;2.13;0.90;;;;;;;;;;5106281;28;20020;-83
2020/12/28 16:26:47;;;;;;;2.47;0.90;;;;;;;;;;5104409;28;20081;-83
2020/12/28 16:29:13;;;;;;;2.60;0.70;;;;;;;;;;5098605;28;20024;-83
2020/12/28 16:31:39;;;;;;;2.80;0.80;;;;;;;;;;5100346;28;20032;-83
2020/12/28 16:34:05;;;;;;;2.50;0.85;;;;;;;;;;5090049;28;20101;-83
2020/12/28 16:36:37;;;;;;;1.48;0.85;;;;;;;;;;5097726;28;20047;-83
2020/12/28 16:39:04;;;;;;;1.65;0.80;;;;;;;;;;5093021;28;20514;-83
2020/12/28 16:41:30;;;;;;;1.88;0.60;;;;;;;;;;5092464;28;20027;-83
2020/12/28 16:43:56;;;;;;;2.50;1.10;;;;;;;;;;5094655;28;20031;-83
2020/12/28 16:46:22;;;;;;;2.60;1.15;;;;;;;;;;5091816;28;20391;-83
2020/12/28 16:48:48;;;;;;;3.38;1.50;;;;;;;;;;5077378;28;20029;-83
2020/12/28 16:51:14;;;;;;;4.40;1.65;;;;;;;;;;5094177;28;20016;-82
2020/12/28 16:53:40;;;;;;;3.58;1.38;;;;;;;;;;5092814;28;20103;-82
2020/12/28 16:56:16;;;;;;;8.07;3.22;;;;;;;;;;5099262;28;20107;-83
2020/12/28 16:58:43;;;;;;;17.52;7.85;;;;;;;;;;5089137;28;20516;-83
2020/12/28 17:01:09;;;;;;;15.73;6.55;;;;;;;;;;5075571;28;20028;-83
2020/12/28 17:03:35;;;;;;;6.63;3.92;;;;;;;;;;5091091;28;20078;-83
2020/12/28 17:06:01;;;;;;;5.65;2.70;;;;;;;;;;5091533;28;20111;-83
2020/12/28 17:08:27;;;;;;;4.82;1.95;;;;;;;;;;5094262;28;20107;-82
2020/12/28 17:10:54;;;;;;;5.72;2.53;;;;;;;;;;5096389;28;20403;-83
2020/12/28 17:13:20;;;;;;;3.38;1.92;;;;;;;;;;5095617;28;20028;-83
2020/12/28 17:15:46;;;;;;;6.68;3.28;;;;;;;;;;5096160;28;20044;-83
2020/12/28 17:18:12;;;;;;;8.23;4.40;;;;;;;;;;5092443;28;20438;-82
2020/12/28 17:20:38;;;;;;;4.70;2.15;;;;;;;;;;5093882;28;20045;-83
2020/12/28 17:23:04;;;;;;;5.03;2.35;;;;;;;;;;5086145;28;20086;-82
2020/12/28 17:25:30;;;;;;;3.35;1.38;;;;;;;;;;5083726;28;20410;-82
2020/12/28 17:27:56;;;;;;;2.78;1.20;;;;;;;;;;5085570;28;20396;-82
2020/12/28 17:30:22;;;;;;;2.15;0.93;;;;;;;;;;5082981;28;20055;-82
2020/12/28 17:32:49;;;;;;;5.55;1.45;;;;;;;;;;5084572;28;20048;-83
2020/12/28 17:37:33;;;;;;;4.85;1.63;;;;;;;;;;5074489;28;20390;-82
2020/12/28 17:39:59;;;;;;;4.10;1.98;;;;;;;;;;5054343;28;20037;-82
2020/12/28 17:42:24;;;;;;;3.63;1.60;;;;;;;;;;5059449;28;20025;-82
2020/12/28 17:44:54;;;;;;;2.95;1.42;;;;;;;;;;5080843;28;20042;-82
2020/12/28 17:47:19;;;;;;;4.68;1.20;;;;;;;;;;5055500;28;20024;-82
2020/12/28 17:49:45;;;;;;;2.63;0.93;;;;;;;;;;5061341;28;20036;-82
2020/12/28 17:52:11;;;;;;;2.63;1.00;;;;;;;;;;5058921;28;20028;-82
2020/12/28 17:54:37;;;;;;;2.17;1.00;;;;;;;;;;5074636;28;20089;-82
2020/12/28 17:57:03;;;;;;;2.78;0.98;;;;;;;;;;5074364;28;20047;-83
2020/12/28 17:59:29;;;;;;;7.75;1.33;;;;;;;;;;5048877;28;20017;-82
2020/12/28 18:01:55;;;;;;;2.40;0.80;;;;;;;;;;5060089;28;20032;-82
2020/12/28 18:04:21;;;;;;;3.75;1.23;;;;;;;;;;5077651;28;20040;-82
2020/12/28 18:06:51;;;;;;;3.00;1.63;;;;;;;;;;5062996;28;20032;-82
2020/12/28 18:09:17;;;;;;;2.28;1.00;;;;;;;;;;5045365;28;20047;-82
2020/12/28 18:11:43;;;;;;;3.22;1.73;;;;;;;;;;5059678;28;20032;-82
2020/12/28 18:14:09;;;;;;;1.73;0.82;;;;;;;;;;5059076;28;20094;-83
2020/12/28 18:16:35;;;;;;;4.13;0.90;;;;;;;;;;5058591;28;20047;-83
2020/12/28 18:19:01;;;;;;;12.75;6.05;;;;;;;;;;5077908;28;20028;-81
2020/12/28 18:21:27;;;;;;;6.55;4.07;;;;;;;;;;5055645;28;20028;-82
2020/12/28 18:23:53;;;;;;;4.97;2.50;;;;;;;;;;5074949;28;20032;-81
2020/12/28 18:26:19;;;;;;;6.53;1.60;;;;;;;;;;5074084;28;20032;-82
2020/12/28 18:28:45;;;;;;;6.22;1.30;;;;;;;;;;5058195;28;20051;-81
2020/12/28 18:31:12;;;;;;;3.53;1.50;;;;;;;;;;5074465;28;20028;-82
2020/12/28 18:33:38;;;;;;;5.25;2.03;;;;;;;;;;5074286;28;20145;-82
2020/12/28 18:36:05;;;;;;;2.30;1.02;;;;;;;;;;5065326;28;20116;-82
2020/12/28 18:38:31;;;;;;;2.75;1.05;;;;;;;;;;5072644;28;20032;-82
2020/12/28 18:40:57;;;;;;;1.90;0.85;;;;;;;;;;5072549;28;20123;-83
2020/12/28 18:43:23;;;;;;;2.20;1.00;;;;;;;;;;5078034;28;20104;-82
2020/12/28 18:45:49;;;;;;;2.63;1.33;;;;;;;;;;5059265;28;20039;-82
2020/12/28 18:48:15;;;;;;;2.05;0.80;;;;;;;;;;5033419;28;20500;-82
2020/12/28 18:50:41;;;;;;;2.05;0.95;;;;;;;;;;5036750;28;20022;-82
2020/12/28 18:53:07;;;;;;;4.25;1.10;;;;;;;;;;5065594;28;20032;-82
2020/12/28 18:55:33;;;;;;;2.85;1.00;;;;;;;;;;5045647;28;20481;-82
2020/12/28 18:57:59;;;;;;;4.25;1.60;;;;;;;;;;5044262;28;20504;-82
2020/12/28 19:00:27;;;;;;;3.72;1.85;;;;;;;;;;5038068;28;20025;-82
2020/12/28 19:02:54;;;;;;;2.70;1.20;;;;;;;;;;5039157;28;20676;-82
2020/12/28 19:05:20;;;;;;;3.78;1.13;;;;;;;;;;5045750;28;20027;-82
2020/12/28 19:07:47;;;;;;;1.63;0.90;;;;;;;;;;5043983;28;20027;-81
2020/12/28 19:10:13;;;;;;;2.42;0.90;;;;;;;;;;5041056;28;20021;-81
2020/12/28 19:12:39;;;;;;;2.50;1.13;;;;;;;;;;5060350;28;20029;-82
2020/12/28 19:15:05;;;;;;;4.30;1.38;;;;;;;;;;5059868;28;20748;-82
2020/12/28 19:17:31;;;;;;;3.47;0.98;;;;;;;;;;5046493;28;20032;-82
2020/12/28 19:19:57;;;;;;;2.63;1.10;;;;;;;;;;5058318;28;20023;-82
2020/12/28 19:22:23;;;;;;;2.28;1.00;;;;;;;;;;5064277;28;20788;-82
2020/12/28 19:24:51;;;;;;;2.92;1.30;;;;;;;;;;5045055;28;20021;-82
2020/12/28 19:29:35;;;;;;;7.50;2.92;;;;;;;;;;5084219;28;20385;-81
2020/12/28 19:32:01;;;;;;;5.18;3.00;;;;;;;;;;5099131;28;20088;-82
2020/12/28 19:34:28;;;;;;;5.20;2.70;;;;;;;;;;5064151;28;20104;-81
2020/12/28 19:36:54;;;;;;;3.38;1.95;;;;;;;;;;5078959;28;20067;-81
2020/12/28 19:39:21;;;;;;;11.65;7.57;;;;;;;;;;5061955;28;20028;-81
2020/12/28 19:41:48;;;;;;;14.52;7.30;;;;;;;;;;5073577;28;20077;-81
2020/12/28 19:44:15;;;;;;;7.10;5.25;;;;;;;;;;5078519;28;20103;-81
2020/12/28 19:46:41;;;;;;;6.68;4.03;;;;;;;;;;5066859;28;20074;-81
2020/12/28 19:49:07;;;;;;;5.55;3.50;;;;;;;;;;5066399;28;20036;-81
2020/12/28 19:51:34;;;;;;;8.02;4.30;;;;;;;;;;5063163;28;20029;-81
2020/12/28 19:54:00;;;;;;;5.95;3.60;;;;;;;;;;5088293;28;20032;-81
2020/12/28 19:56:26;;;;;;;4.85;2.88;;;;;;;;;;5059404;28;20389;-81
2020/12/28 19:58:54;;;;;;;3.42;1.80;;;;;;;;;;5067161;28;20024;-81
2020/12/28 20:01:20;;;;;;;4.10;1.80;;;;;;;;;;5088115;28;20038;-81
2020/12/28 20:03:46;;;;;;;4.55;2.05;;;;;;;;;;5077471;28;20040;-81
2020/12/28 20:06:12;;;;;;;4.40;2.20;;;;;;;;;;5071285;28;20537;-81
2020/12/28 20:08:38;;;;;;;4.53;2.17;;;;;;;;;;5074466;28;20028;-81
2020/12/28 20:11:04;;;;;;;5.82;3.20;;;;;;;;;;5083328;28;20100;-81
2020/12/28 20:13:30;;;;;;;9.90;5.47;;;;;;;;;;5064495;28;20100;-81
2020/12/28 20:15:56;;;;;;;16.65;7.25;;;;;;;;;;5081528;28;20033;-81
2020/12/28 20:18:22;;;;;;;23.67;13.25;;;;;;;;;;5059169;28;20077;-81
2020/12/28 20:20:48;;;;;;;35.03;21.90;;;;;;;;;;5059016;28;20119;-81
2020/12/28 20:23:14;;;;;;;17.20;10.73;;;;;;;;;;5063211;28;20048;-81
2020/12/28 20:25:41;;;;;;;11.73;6.53;;;;;;;;;;5078011;28;20020;-81
2020/12/28 20:28:06;;;;;;;12.80;6.88;;;;;;;;;;5079933;28;20060;-81
2020/12/28 20:30:32;;;;;;;10.25;5.65;;;;;;;;;;5062756;28;20068;-81
2020/12/28 20:32:58;;;;;;;8.25;4.93;;;;;;;;;;5080702;28;20029;-81
2020/12/28 20:35:25;;;;;;;9.65;5.05;;;;;;;;;;5059513;28;20024;-81
2020/12/28 20:37:51;;;;;;;6.55;4.15;;;;;;;;;;5060432;28;20060;-81
2020/12/28 20:40:36;;;;;;;8.43;4.72;;;;;;;;;;5050386;28;20356;-81
2020/12/28 20:43:10;;;;;;;8.63;4.20;;;;;;;;;;5029796;22;20041;-82
2020/12/28 20:47:55;;;;;;;6.00;3.13;;;;;;;;;;5086511;27;20367;-82
2020/12/28 20:50:21;;;;;;;4.75;2.53;;;;;;;;;;5085567;28;20075;-82